Time;durP1;ratioP1;P1;durP2;ratioP2;P2;SDS_P1;SDS_P2;PMS_P1;PMS_P2;Temp;Humidity;BMP_temperature;BMP_pressure;BME280_temperature;BME280_humidity;BME280_pressure;Samples;Min_cycle;Max_cycle;Signal;HPM_P1;HPM_P2
2021/03/02 17:20:07;;;;;;;57.15;23.98;;;1.90;93.10;;;;;;5097068;27;20456;-92
2021/03/02 17:22:32;;;;;;;54.15;24.42;;;1.90;93.80;;;;;;5086378;28;20385;-93
2021/03/02 17:24:58;;;;;;;54.00;24.23;;;2.00;94.20;;;;;;5085312;28;20020;-92
2021/03/02 17:27:24;;;;;;;58.50;26.10;;;2.10;94.60;;;;;;5088881;28;20052;-92
2021/03/02 17:29:50;;;;;;;54.67;24.83;;;2.10;94.80;;;;;;5089516;28;20066;-92
2021/03/02 17:32:16;;;;;;;50.30;22.77;;;2.30;95.00;;;;;;5087298;28;20036;-93
2021/03/02 17:34:42;;;;;;;60.00;25.05;;;2.30;95.00;;;;;;5088159;28;20021;-94
2021/03/02 17:37:07;;;;;;;52.03;23.90;;;2.40;95.20;;;;;;5089702;28;20025;-92
2021/03/02 17:39:33;;;;;;;60.35;27.55;;;2.50;94.90;;;;;;5089290;28;20579;-92
2021/03/02 17:41:59;;;;;;;55.50;25.52;;;2.60;94.70;;;;;;5073831;28;20040;-93
2021/03/02 17:44:25;;;;;;;54.50;25.00;;;2.60;94.70;;;;;;5070709;28;20108;-92
2021/03/02 17:46:50;;;;;;;52.72;24.83;;;2.70;94.70;;;;;;5069334;28;20078;-91
2021/03/02 17:49:16;;;;;;;53.53;24.35;;;2.70;94.60;;;;;;5072825;28;20029;-93
2021/03/02 17:51:42;;;;;;;56.67;24.85;;;2.80;94.50;;;;;;5074110;28;20020;-95
2021/03/02 17:54:07;;;;;;;54.50;23.02;;;2.80;94.40;;;;;;5081712;28;20028;-95
2021/03/02 17:56:33;;;;;;;59.25;27.48;;;2.90;94.30;;;;;;5085630;28;20028;-93
2021/03/02 17:58:59;;;;;;;52.08;24.50;;;2.90;94.20;;;;;;5088053;28;20035;-92
2021/03/02 18:01:25;;;;;;;54.80;25.05;;;2.90;94.10;;;;;;5089397;28;20021;-90
2021/03/02 18:03:51;;;;;;;56.55;25.05;;;3.00;94.00;;;;;;5086860;28;20020;-91
2021/03/02 18:06:17;;;;;;;56.25;26.60;;;3.00;93.90;;;;;;5070342;28;20046;-91
2021/03/02 18:08:42;;;;;;;63.20;29.92;;;3.00;93.70;;;;;;5071252;28;20082;-91
2021/03/02 18:11:08;;;;;;;56.53;27.40;;;3.00;93.70;;;;;;5074073;28;20134;-91
2021/03/02 18:13:34;;;;;;;57.60;24.85;;;3.00;93.60;;;;;;5075065;28;20025;-91
2021/03/02 18:16:01;;;;;;;58.17;26.13;;;3.10;93.60;;;;;;5091460;28;20472;-92
2021/03/02 18:18:27;;;;;;;56.35;25.27;;;3.10;93.60;;;;;;5083791;28;20052;-90
2021/03/02 18:20:53;;;;;;;53.05;26.63;;;3.10;93.50;;;;;;5078840;28;20017;-89
2021/03/02 18:23:20;;;;;;;55.55;26.08;;;3.10;93.40;;;;;;5083837;28;20040;-91
2021/03/02 18:25:47;;;;;;;51.83;25.50;;;3.10;93.40;;;;;;5081921;28;20361;-91
2021/03/02 18:28:13;;;;;;;59.45;26.50;;;3.10;93.30;;;;;;5081235;28;20071;-91
2021/03/02 18:30:39;;;;;;;52.45;24.08;;;3.10;93.20;;;;;;5079561;28;20020;-91
2021/03/02 18:33:04;;;;;;;48.45;23.73;;;3.10;93.20;;;;;;5077928;28;20032;-91
2021/03/02 18:35:30;;;;;;;55.13;24.33;;;3.10;93.20;;;;;;5076869;28;20028;-92
2021/03/02 18:37:56;;;;;;;53.67;25.13;;;3.10;93.00;;;;;;5074830;28;20082;-92
2021/03/02 18:40:22;;;;;;;52.42;24.95;;;3.10;92.80;;;;;;5078760;28;20070;-91
2021/03/02 18:42:47;;;;;;;51.30;22.30;;;3.10;92.80;;;;;;5076187;28;20024;-91
2021/03/02 18:45:13;;;;;;;50.65;24.10;;;3.20;92.80;;;;;;5076053;28;20350;-92
2021/03/02 18:47:40;;;;;;;51.22;24.23;;;3.20;92.70;;;;;;5093664;28;20530;-92
2021/03/02 18:50:06;;;;;;;46.85;22.83;;;3.20;92.50;;;;;;5070122;28;20115;-91
2021/03/02 18:52:32;;;;;;;48.65;22.77;;;3.10;92.60;;;;;;5059607;28;20025;-91
2021/03/02 18:54:58;;;;;;;51.72;24.42;;;3.10;92.50;;;;;;5071649;28;20024;-92
2021/03/02 18:57:23;;;;;;;58.25;25.13;;;3.10;91.90;;;;;;5075815;28;20017;-92
2021/03/02 18:59:49;;;;;;;46.15;21.30;;;3.00;91.90;;;;;;5075503;28;20024;-91
2021/03/02 19:02:15;;;;;;;43.42;21.63;;;3.00;92.10;;;;;;5063518;28;20495;-91
2021/03/02 19:04:41;;;;;;;47.92;21.75;;;3.00;92.20;;;;;;5073694;28;20025;-91
2021/03/02 19:07:06;;;;;;;46.80;20.67;;;3.00;92.00;;;;;;5058585;28;20504;-92
2021/03/02 19:09:34;;;;;;;47.35;22.00;;;2.90;92.20;;;;;;5073932;28;20381;-92
2021/03/02 19:12:00;;;;;;;45.35;20.85;;;2.90;92.10;;;;;;5073001;28;20044;-92
2021/03/02 19:14:27;;;;;;;44.90;21.50;;;2.90;92.10;;;;;;5067320;28;20028;-94
2021/03/02 19:16:53;;;;;;;47.20;22.10;;;2.90;92.10;;;;;;5067269;28;20029;-91
2021/03/02 19:19:19;;;;;;;44.17;20.10;;;2.80;92.10;;;;;;5061759;28;20049;-93
2021/03/02 19:21:44;;;;;;;48.42;21.90;;;2.80;92.10;;;;;;5075765;28;20020;-92
2021/03/02 19:24:10;;;;;;;49.63;22.83;;;2.80;92.10;;;;;;5076196;28;20043;-91
2021/03/02 19:26:37;;;;;;;47.00;22.08;;;2.80;91.80;;;;;;5076475;28;20477;-93
2021/03/02 19:29:04;;;;;;;39.67;20.55;;;2.70;92.00;;;;;;5072745;28;20047;-91
2021/03/02 19:31:31;;;;;;;45.67;21.48;;;2.70;92.10;;;;;;5074544;28;20031;-94
2021/03/02 19:33:57;;;;;;;44.80;22.08;;;2.70;92.10;;;;;;5074585;28;20027;-91
2021/03/02 19:36:23;;;;;;;46.10;20.80;;;2.70;92.10;;;;;;5074051;28;20043;-91
2021/03/02 19:38:49;;;;;;;45.10;20.33;;;2.70;92.20;;;;;;5069978;28;20465;-90
2021/03/02 19:41:14;;;;;;;48.50;22.38;;;2.70;92.20;;;;;;5061251;28;20468;-93
2021/03/02 19:43:40;;;;;;;44.05;20.25;;;2.80;92.20;;;;;;5070918;28;20020;-92
2021/03/02 19:46:06;;;;;;;46.03;21.73;;;2.80;92.20;;;;;;5068995;28;20025;-92
2021/03/02 19:48:31;;;;;;;45.50;21.55;;;2.80;92.10;;;;;;5073701;28;20027;-92
2021/03/02 19:50:57;;;;;;;45.20;20.98;;;2.70;91.90;;;;;;5073281;28;20036;-92
2021/03/02 19:53:23;;;;;;;47.20;21.58;;;2.70;92.00;;;;;;5076321;28;20082;-91
